To NAV CANADA Home Page Login to a new session Search on AWWS site Feedback and Comments Disclaimer Vers la page française équivalente Tips FAQ What's new on the site To the Forecasts and Observations / NOTAM section To "File a Flight Plan" website Publications and other links Update of the User's profile FIC Telephone Numbers My Weather Data Folder Route Weather Data Regional Weather Data Local Weather Data To the Forecasts and Observations / NOTAM section
Request Generated 02/24/2017 at 03:38:09 UTC . Weather information available at that time is displayed.

METAR/TAF

LA GRANDE-4/QC    (show WxCam)

METAR CYAH 240300Z AUTO 23003KT 210V310 9SM OVC020 M12/M14 A2968 RMK
SLP076=
METAR CYAH 240200Z AUTO VRB02KT 9SM OVC022 M11/M12 A2967 RMK SLP072=
METAR CYAH 240100Z AUTO VRB02KT 9SM BKN022 OVC095 M09/M11 A2965 RMK
SLP066=

*** REMARK        : Forecast period has ended; this was the last TAF issued
*** REMARQUE : La période de prévision est échue; ceci était le dernier TAF qui a été émis
TAF CYAH 231738Z 2318/2322 04008KT P6SM SCT025 OVC030 TEMPO 2318/2322
5SM -SN HZ
RMK FCST BASED ON AUTO OBS. NXT FCST WILL BE ISSUED AT 241145Z=
Your time UTC time
Weather data provided by Environment Canada and NAV CANADA